Time;durP1;ratioP1;P1;durP2;ratioP2;P2;SDS_P1;SDS_P2;PMS_P1;PMS_P2;Temp;Humidity;BMP_temperature;BMP_pressure;BME280_temperature;BME280_humidity;BME280_pressure;Samples;Min_cycle;Max_cycle;Signal;HPM_P1;HPM_P2
2022/06/17 00:04:03;;;;;;;16.40;12.30;;;;;;;14.36;88.39;98916.59;221440;1271;25302;-72
2022/06/17 00:09:36;;;;;;;12.70;11.30;;;;;;;14.28;88.16;98914.50;221345;1268;22524;-71
2022/06/17 00:15:23;;;;;;;15.00;12.70;;;;;;;14.21;88.35;98908.52;220973;1270;359481;-72
2022/06/17 00:20:00;;;;;;;13.40;11.40;;;;;;;14.17;88.67;98899.48;221267;1270;22683;-71
2022/06/17 00:25:13;;;;;;;15.30;12.50;;;;;;;14.17;89.32;98905.88;221677;1268;24117;-72
2022/06/17 00:30:20;;;;;;;14.10;12.10;;;;;;;14.18;89.87;98916.24;221130;1271;22665;-72
2022/06/17 00:35:33;;;;;;;11.80;10.50;;;;;;;14.13;89.91;98919.98;221672;1268;22541;-71
2022/06/17 00:40:36;;;;;;;12.50;10.80;;;;;;;14.01;89.66;98920.54;221297;1268;24146;-72
2022/06/17 00:45:51;;;;;;;12.20;10.10;;;;;;;13.94;89.78;98919.90;221356;1268;23865;-72
2022/06/17 00:51:20;;;;;;;11.30;8.00;;;;;;;13.89;89.72;98915.79;221362;1271;22637;-72
2022/06/17 00:56:30;;;;;;;9.70;8.60;;;;;;;13.80;89.62;98912.42;221374;1268;25518;-72
2022/06/17 01:02:00;;;;;;;10.00;9.00;;;;;;;13.74;89.76;98911.09;221422;1268;22561;-72
2022/06/17 01:07:20;;;;;;;9.10;8.20;;;;;;;13.68;90.00;98905.52;221041;1271;22575;-71
2022/06/17 01:17:46;;;;;;;18.50;11.00;;;;;;;13.59;90.19;98909.54;221603;1269;22662;-71
2022/06/17 01:23:16;;;;;;;11.40;10.20;;;;;;;13.51;90.18;98909.45;221191;1270;25514;-71
2022/06/17 01:28:18;;;;;;;11.50;10.30;;;;;;;13.46;90.51;98916.80;221435;1268;22531;-72
2022/06/17 01:33:37;;;;;;;11.50;10.30;;;;;;;13.46;90.82;98922.65;221621;1268;26566;-71
2022/06/17 01:38:44;;;;;;;16.50;11.20;;;;;;;13.45;90.91;98930.52;221377;1268;23058;-72
2022/06/17 01:44:11;;;;;;;14.40;12.50;;;;;;;13.46;91.15;98937.56;221590;1268;25320;-73
2022/06/17 01:49:43;;;;;;;15.50;12.30;;;;;;;13.47;91.43;98945.23;221499;1268;22567;-72
2022/06/17 01:54:56;;;;;;;16.20;12.90;;;;;;;13.46;91.31;98949.39;221459;1268;25366;-71
2022/06/17 02:00:15;;;;;;;14.90;12.90;;;;;;;13.41;91.20;98952.84;221505;1268;22771;-74
2022/06/17 02:05:43;;;;;;;14.90;13.40;;;;;;;13.39;91.61;98947.34;221372;1268;24271;-72
2022/06/17 02:10:55;;;;;;;14.00;12.20;;;;;;;13.38;91.74;98951.81;221373;1268;22580;-71
2022/06/17 02:16:23;;;;;;;16.20;12.70;;;;;;;13.35;91.83;98965.13;221514;1268;25443;-72
2022/06/17 02:22:33;;;;;;;14.00;12.60;;;;;;;13.33;91.82;98972.41;221022;1270;22594;-72
2022/06/17 02:28:00;;;;;;;13.80;11.20;;;;;;;13.33;91.81;98973.48;221343;1268;23266;-72
2022/06/17 02:33:13;;;;;;;12.20;10.60;;;;;;;13.32;91.59;98982.38;221162;1268;24363;-72
2022/06/17 02:38:58;;;;;;;12.30;9.40;;;;;;;13.31;91.45;98986.58;221448;1268;23116;-71
2022/06/17 02:45:20;;;;;;;11.30;8.60;;;;;;;13.31;91.13;98984.66;220044;1271;25251;-71
2022/06/17 02:50:31;;;;;;;11.20;8.00;;;;;;;13.32;90.83;98988.20;221694;1268;22530;-73
2022/06/17 03:02:17;;;;;;;8.30;7.50;;;;;;;13.35;90.21;98991.27;221330;1270;22542;-72
2022/06/17 03:14:16;;;;;;;8.60;6.90;;;;;;;13.33;89.60;99015.45;221096;1270;22718;-72
2022/06/17 03:19:38;;;;;;;7.80;6.40;;;;;;;13.31;89.37;99017.31;221710;1268;22783;-71
2022/06/17 03:24:50;;;;;;;9.70;7.00;;;;;;;13.34;89.43;99023.40;221359;1268;22633;-72
2022/06/17 03:30:00;;;;;;;7.50;6.50;;;;;;;13.48;89.34;99032.65;221250;1268;22550;-72
2022/06/17 03:35:05;;;;;;;6.50;6.00;;;;;;;13.56;88.73;99044.25;221611;1268;22535;-72
2022/06/17 03:40:26;;;;;;;7.20;6.20;;;;;;;13.69;88.83;99047.84;221329;1268;22566;-71
2022/06/17 03:46:02;;;;;;;6.90;5.70;;;;;;;13.96;88.56;99060.05;221506;1268;22616;-72
2022/06/17 03:51:05;;;;;;;7.10;5.60;;;;;;;14.41;88.35;99077.73;221201;1270;24150;-71
2022/06/17 03:56:14;;;;;;;4.70;4.30;;;;;;;14.85;87.83;99083.79;221132;1269;24213;-72
2022/06/17 04:01:44;;;;;;;4.50;4.00;;;;;;;15.28;86.40;99088.73;221149;1268;22605;-72
2022/06/17 04:06:55;;;;;;;5.30;3.70;;;;;;;15.59;85.05;99088.03;221659;1268;25268;-72
2022/06/17 04:12:19;;;;;;;4.90;3.90;;;;;;;15.66;83.62;99099.23;220912;1270;22740;-71
2022/06/17 04:17:48;;;;;;;5.10;3.60;;;;;;;15.56;83.00;99108.16;221262;1268;25397;-72
2022/06/17 04:22:55;;;;;;;5.30;4.00;;;;;;;15.38;82.25;99115.66;221495;1268;23292;-71
2022/06/17 04:28:44;;;;;;;4.20;3.60;;;;;;;15.15;82.04;99123.19;221350;1270;25363;-72
2022/06/17 04:34:13;;;;;;;4.30;3.40;;;;;;;14.96;81.71;99127.40;221425;1268;22548;-72
2022/06/17 04:39:45;;;;;;;3.70;3.40;;;;;;;14.78;81.81;99130.87;221462;1268;24308;-71
2022/06/17 04:45:16;;;;;;;4.70;3.80;;;;;;;14.67;81.76;99134.73;221689;1268;24714;-71
2022/06/17 04:50:32;;;;;;;5.90;3.90;;;;;;;14.65;81.89;99142.48;221323;1270;22611;-72
2022/06/17 04:55:45;;;;;;;4.30;3.90;;;;;;;14.71;82.10;99153.13;221508;1268;22578;-70
2022/06/17 05:01:19;;;;;;;5.00;3.50;;;;;;;14.78;81.82;99155.55;221595;1268;22576;-72
2022/06/17 05:06:49;;;;;;;4.20;3.20;;;;;;;14.75;81.30;99164.79;221601;1268;22529;-72
2022/06/17 05:12:15;;;;;;;5.80;3.60;;;;;;;14.76;81.13;99163.82;221251;1268;25234;-73
2022/06/17 05:17:23;;;;;;;4.00;3.40;;;;;;;14.76;81.02;99166.52;221453;1268;22564;-72
2022/06/17 05:22:33;;;;;;;3.70;3.20;;;;;;;14.77;80.83;99163.35;221401;1269;22554;-73
2022/06/17 05:27:51;;;;;;;3.80;3.40;;;;;;;14.78;80.58;99165.09;221454;1268;23778;-72
2022/06/17 05:33:37;;;;;;;4.30;3.70;;;;;;;14.80;80.51;99164.23;221274;1268;23714;-71
2022/06/17 05:39:01;;;;;;;5.10;3.40;;;;;;;14.92;80.73;99168.72;221500;1268;22650;-72
2022/06/17 05:44:15;;;;;;;5.40;3.60;;;;;;;15.07;80.54;99171.58;221527;1268;25248;-72
2022/06/17 05:49:33;;;;;;;4.50;3.80;;;;;;;15.18;80.14;99181.08;221056;1270;26154;-72
2022/06/17 05:55:03;;;;;;;4.00;3.50;;;;;;;15.39;79.92;99175.77;221450;1268;22570;-71
2022/06/17 06:00:13;;;;;;;3.90;3.50;;;;;;;15.62;79.39;99177.89;221395;1268;22722;-72
2022/06/17 06:05:21;;;;;;;3.50;3.20;;;;;;;15.70;78.56;99183.82;221392;1268;22999;-73
2022/06/17 06:10:25;;;;;;;4.00;3.10;;;;;;;15.77;78.62;99186.23;221287;1270;22896;-70
2022/06/17 06:15:39;;;;;;;5.20;3.90;;;;;;;15.86;78.02;99196.64;221501;1268;22661;-73
2022/06/17 06:21:05;;;;;;;5.50;3.60;;;;;;;15.89;77.64;99193.70;221389;1270;25508;-72
2022/06/17 06:26:24;;;;;;;4.40;3.90;;;;;;;16.06;77.89;99192.34;221539;1268;22617;-72
2022/06/17 06:31:38;;;;;;;4.90;4.00;;;;;;;16.37;77.48;99202.64;221607;1268;25375;-71
2022/06/17 06:37:14;;;;;;;4.80;4.30;;;;;;;16.67;77.33;99201.73;221290;1268;22688;-72
2022/06/17 06:42:33;;;;;;;8.00;4.30;;;;;;;17.06;76.68;99201.45;221428;1268;25431;-72
2022/06/17 06:47:57;;;;;;;6.00;3.70;;;;;;;17.27;75.78;99203.66;221335;1268;24141;-72
2022/06/17 06:53:09;;;;;;;4.40;3.10;;;;;;;17.58;75.77;99212.52;221642;1269;22544;-72
2022/06/17 06:58:27;;;;;;;3.80;3.40;;;;;;;17.93;74.21;99206.66;221431;1270;24277;-72
2022/06/17 07:03:33;;;;;;;3.50;2.90;;;;;;;18.05;73.32;99204.66;221302;1268;25524;-72
2022/06/17 07:08:36;;;;;;;4.10;3.70;;;;;;;18.14;72.86;99203.70;221462;1269;23129;-72
2022/06/17 07:13:42;;;;;;;4.40;3.50;;;;;;;18.11;71.82;99209.39;221342;1269;25415;-71
2022/06/17 07:18:45;;;;;;;3.80;3.40;;;;;;;18.09;71.80;99212.77;221830;1268;24828;-72
2022/06/17 07:23:47;;;;;;;5.40;3.70;;;;;;;18.20;71.65;99213.15;221417;1268;22561;-72
2022/06/17 07:28:52;;;;;;;4.30;3.80;;;;;;;18.43;71.33;99216.10;221153;1270;24291;-72
2022/06/17 07:34:06;;;;;;;5.70;3.60;;;;;;;18.75;70.61;99216.43;221275;1270;22677;-71
2022/06/17 07:44:47;;;;;;;4.00;3.60;;;;;;;18.95;69.33;99212.66;221257;1270;22543;-72
2022/06/17 07:49:50;;;;;;;4.00;3.40;;;;;;;19.02;68.97;99219.73;221374;1268;22576;-71
2022/06/17 07:54:53;;;;;;;4.50;3.00;;;;;;;19.11;68.60;99227.81;221205;1268;22530;-72
2022/06/17 08:00:03;;;;;;;3.70;2.80;;;;;;;19.31;68.15;99231.60;221207;1270;23046;-71
2022/06/17 08:05:13;;;;;;;4.90;3.00;;;;;;;19.43;67.63;99239.62;221683;1268;22522;-72
2022/06/17 08:10:20;;;;;;;3.80;3.00;;;;;;;19.51;67.28;99246.95;221773;1268;22579;-71
2022/06/17 08:15:23;;;;;;;3.60;3.30;;;;;;;19.63;66.69;99250.05;221846;1268;22612;-71
2022/06/17 08:20:30;;;;;;;4.40;2.80;;;;;;;19.58;65.88;99247.73;221446;1270;22852;-72
2022/06/17 08:25:34;;;;;;;3.50;2.80;;;;;;;19.65;65.76;99254.73;221515;1269;24278;-71
2022/06/17 08:30:48;;;;;;;4.00;3.60;;;;;;;19.64;65.05;99265.19;221707;1268;24225;-72
2022/06/17 08:35:55;;;;;;;4.00;2.90;;;;;;;19.64;64.90;99274.65;221369;1269;22709;-72
2022/06/17 08:41:16;;;;;;;3.80;2.80;;;;;;;19.79;64.31;99277.55;221367;1270;25670;-72
2022/06/17 08:47:00;;;;;;;2.90;2.10;;;;;;;20.13;63.85;99279.20;221466;1270;24283;-71
2022/06/17 08:52:24;;;;;;;2.10;1.90;;;;;;;20.54;61.27;99292.97;221115;1270;22678;-72
2022/06/17 08:57:39;;;;;;;2.40;2.20;;;;;;;20.58;60.50;99298.09;221450;1268;26406;-72
2022/06/17 09:02:56;;;;;;;3.60;2.00;;;;;;;20.79;60.26;99302.08;221526;1270;22704;-72
2022/06/17 09:08:26;;;;;;;2.50;1.80;;;;;;;20.94;59.35;99313.57;221345;1268;23411;-72
2022/06/17 09:13:57;;;;;;;2.10;1.30;;;;;;;21.12;58.08;99318.90;220034;1268;22538;-72
2022/06/17 09:19:12;;;;;;;1.50;1.30;;;;;;;21.25;57.40;99326.81;221362;1270;22575;-72
2022/06/17 09:24:39;;;;;;;1.40;1.30;;;;;;;21.27;55.66;99332.63;221787;1268;22777;-70
2022/06/17 09:29:51;;;;;;;1.40;1.00;;;;;;;21.26;55.18;99326.50;221622;1268;22532;-71
2022/06/17 09:35:22;;;;;;;2.70;1.10;;;;;;;21.32;54.29;99329.27;221410;1268;22551;-71
2022/06/17 09:40:56;;;;;;;1.00;0.90;;;;;;;21.29;52.59;99329.19;221533;1268;23337;-71
2022/06/17 09:46:13;;;;;;;0.90;0.80;;;;;;;21.26;52.72;99325.84;221630;1268;23061;-72
2022/06/17 09:51:28;;;;;;;1.90;1.10;;;;;;;21.21;52.39;99332.94;221344;1269;22541;-71
2022/06/17 09:57:18;;;;;;;2.20;1.10;;;;;;;21.03;52.14;99328.23;221543;1268;22558;-71
2022/06/17 10:02:47;;;;;;;1.10;0.80;;;;;;;21.03;52.18;99334.13;221737;1268;22544;-72
2022/06/17 10:08:38;;;;;;;1.40;0.90;;;;;;;21.06;51.88;99335.52;221845;1268;22530;-72
2022/06/17 10:13:56;;;;;;;0.90;0.90;;;;;;;21.16;52.26;99345.70;221662;1270;22543;-72
2022/06/17 10:20:00;;;;;;;1.50;1.40;;;;;;;21.25;50.67;99350.06;221369;1270;22567;-70
2022/06/17 10:25:52;;;;;;;1.30;0.90;;;;;;;20.92;50.41;99346.80;221686;1268;22769;-72
2022/06/17 10:31:05;;;;;;;1.00;0.60;;;;;;;20.96;50.76;99333.61;221228;1270;22541;-72
2022/06/17 10:36:11;;;;;;;1.10;1.00;;;;;;;21.11;50.24;99335.05;221474;1270;24307;-72
2022/06/17 10:41:23;;;;;;;0.40;0.40;;;;;;;21.37;50.07;99336.40;221108;1270;22562;-71
2022/06/17 10:46:36;;;;;;;0.40;0.40;;;;;;;21.42;48.88;99342.77;221173;1268;24261;-72
2022/06/17 10:51:44;;;;;;;0.40;0.40;;;;;;;21.43;47.85;99346.23;221536;1267;22547;-71
2022/06/17 10:57:44;;;;;;;1.20;0.50;;;;;;;21.52;47.92;99335.96;221656;1268;22534;-72
2022/06/17 11:03:14;;;;;;;0.70;0.40;;;;;;;21.74;48.25;99336.33;221362;1270;22528;-71
2022/06/17 11:08:34;;;;;;;0.90;0.70;;;;;;;21.78;47.88;99337.37;221471;1268;22648;-71
2022/06/17 11:13:42;;;;;;;1.80;0.90;;;;;;;21.81;47.03;99338.37;221604;1270;24787;-72
2022/06/17 11:19:01;;;;;;;1.40;0.90;;;;;;;21.95;47.17;99337.18;221486;1268;22583;-71
2022/06/17 11:24:06;;;;;;;1.70;1.50;;;;;;;21.77;47.34;99342.55;221400;1269;24263;-73
2022/06/17 11:29:22;;;;;;;2.10;1.30;;;;;;;21.69;47.74;99340.34;221548;1268;22562;-71
2022/06/17 11:34:26;;;;;;;0.70;0.70;;;;;;;22.01;48.41;99337.26;221287;1270;22601;-72
2022/06/17 11:39:38;;;;;;;1.20;1.00;;;;;;;22.44;47.95;99334.86;221084;1269;26388;-73
2022/06/17 11:44:50;;;;;;;1.20;0.90;;;;;;;22.39;47.09;99342.63;221348;1270;22553;-72
2022/06/17 11:50:20;;;;;;;1.20;0.80;;;;;;;22.20;47.09;99347.30;221359;1270;22599;-72
2022/06/17 11:55:36;;;;;;;0.80;0.70;;;;;;;22.19;47.23;99348.66;221454;1270;22532;-71
2022/06/17 12:01:33;;;;;;;1.30;0.90;;;;;;;22.45;47.31;99348.32;220961;1270;22594;-72
2022/06/17 12:06:47;;;;;;;2.10;1.10;;;;;;;22.61;47.57;99351.63;221644;1268;24142;-71
2022/06/17 12:11:53;;;;;;;1.40;1.30;;;;;;;22.50;46.63;99349.67;221412;1270;22555;-72
2022/06/17 12:16:57;;;;;;;1.20;1.10;;;;;;;22.26;46.92;99341.36;221266;1270;359903;-72
2022/06/17 12:22:48;;;;;;;1.00;0.90;;;;;;;22.21;47.35;99338.42;221165;1270;24209;-70
2022/06/17 12:27:58;;;;;;;1.40;1.10;;;;;;;22.24;47.35;99334.52;221428;1268;22537;-71
2022/06/17 12:33:15;;;;;;;8.30;6.70;;;;;;;22.60;47.50;99333.67;221292;1270;22918;-71
2022/06/17 12:38:31;;;;;;;3.40;1.00;;;;;;;22.98;46.57;99328.25;221350;1268;24319;-71
2022/06/17 12:43:48;;;;;;;2.40;1.50;;;;;;;23.04;45.41;99333.39;221686;1269;24257;-71
2022/06/17 12:48:50;;;;;;;1.10;1.00;;;;;;;22.82;46.11;99332.77;221267;1270;22723;-71
2022/06/17 12:54:41;;;;;;;2.70;1.00;;;;;;;22.86;46.18;99333.86;221555;1270;23074;-72
2022/06/17 12:59:56;;;;;;;2.80;1.20;;;;;;;22.80;45.49;99340.21;221547;1270;22534;-71
2022/06/17 13:05:13;;;;;;;1.60;1.50;;;;;;;22.64;46.21;99335.64;221319;1270;22696;-72
2022/06/17 13:10:44;;;;;;;1.40;1.30;;;;;;;22.60;46.32;99329.39;221512;1270;24701;-71
2022/06/17 13:15:54;;;;;;;1.20;1.10;;;;;;;22.43;46.28;99338.98;221255;1270;24257;-71
2022/06/17 13:21:01;;;;;;;1.20;1.10;;;;;;;22.57;46.46;99335.40;221300;1270;26566;-72
2022/06/17 13:26:06;;;;;;;;;;;;;;;22.71;45.79;99338.38;221598;1270;22682;-70
2022/06/17 13:31:27;;;;;;;1.90;1.40;;;;;;;22.70;45.99;99326.58;221304;1268;25411;-71
2022/06/17 13:36:56;;;;;;;1.10;1.00;;;;;;;22.61;46.10;99325.44;221300;1270;22496;-71
2022/06/17 13:42:08;;;;;;;1.30;1.20;;;;;;;22.39;45.60;99325.31;221225;1268;22562;-70
2022/06/17 13:47:38;;;;;;;1.70;1.10;;;;;;;22.29;46.57;99320.95;221309;1268;22595;-72
2022/06/17 13:52:54;;;;;;;1.10;1.00;;;;;;;22.35;46.58;99317.28;221339;1270;24454;-71
2022/06/17 13:58:19;;;;;;;2.40;1.10;;;;;;;22.49;46.74;99309.09;221377;1268;22550;-72
2022/06/17 14:03:43;;;;;;;5.20;1.30;;;;;;;22.59;46.89;99311.04;221394;1270;22659;-71
2022/06/17 14:08:57;;;;;;;2.30;1.40;;;;;;;22.84;46.55;99310.27;221494;1270;22555;-71
2022/06/17 14:14:19;;;;;;;2.00;1.20;;;;;;;23.08;46.20;99305.75;221488;1270;22722;-72
2022/06/17 14:19:29;;;;;;;1.00;1.00;;;;;;;23.36;45.46;99299.98;221451;1268;25232;-71
2022/06/17 14:24:47;;;;;;;1.20;1.10;;;;;;;23.23;44.96;99305.30;221223;1270;22588;-72
2022/06/17 14:30:11;;;;;;;2.30;1.30;;;;;;;23.08;45.47;99300.83;221405;1270;25495;-71
2022/06/17 14:36:05;;;;;;;1.50;1.40;;;;;;;23.10;45.70;99297.76;221477;1268;24437;-72
2022/06/17 14:47:14;;;;;;;1.90;1.50;;;;;;;23.09;45.10;99294.83;221493;1270;22746;-72
2022/06/17 14:52:33;;;;;;;2.30;1.30;;;;;;;22.98;45.17;99288.60;221225;1269;24474;-72
2022/06/17 14:58:05;;;;;;;1.80;1.10;;;;;;;22.75;45.35;99288.75;221744;1270;22679;-72
2022/06/17 15:03:22;;;;;;;2.10;1.40;;;;;;;22.58;45.69;99287.61;221502;1270;22537;-71
2022/06/17 15:08:38;;;;;;;1.80;1.20;;;;;;;22.48;46.08;99288.19;221322;1270;24287;-71
2022/06/17 15:14:14;;;;;;;2.50;1.30;;;;;;;22.73;46.60;99287.55;221508;1270;22586;-70
2022/06/17 15:19:40;;;;;;;2.40;2.20;;;;;;;22.91;45.81;99287.58;221553;1270;22602;-71
2022/06/17 15:25:01;;;;;;;4.00;1.20;;;;;;;22.62;45.90;99283.96;221641;1270;22630;-71
2022/06/17 15:30:16;;;;;;;1.40;1.30;;;;;;;22.59;46.09;99281.71;221742;1269;22541;-71
2022/06/17 15:35:36;;;;;;;1.30;1.20;;;;;;;22.64;45.82;99281.89;221642;1267;24739;-70
2022/06/17 15:40:38;;;;;;;1.30;1.10;;;;;;;22.45;45.73;99284.30;221658;1268;25511;-72
2022/06/17 15:45:43;;;;;;;1.70;1.30;;;;;;;22.34;46.35;99276.07;221516;1270;23189;-71
2022/06/17 15:50:51;;;;;;;1.70;1.30;;;;;;;22.28;46.57;99274.91;221795;1270;22627;-72
2022/06/17 15:55:55;;;;;;;1.50;1.10;;;;;;;22.31;46.78;99279.05;221643;1270;23870;-71
2022/06/17 16:01:09;;;;;;;2.00;1.60;;;;;;;22.50;47.05;99276.45;221541;1268;25488;-71
2022/06/17 16:06:44;;;;;;;2.20;1.80;;;;;;;22.72;46.73;99279.88;221448;1269;22539;-72
2022/06/17 16:11:54;;;;;;;1.20;1.10;;;;;;;22.96;46.20;99271.23;221433;1270;22553;-72
2022/06/17 16:17:15;;;;;;;1.60;1.50;;;;;;;23.17;45.59;99268.77;221637;1270;22738;-71
2022/06/17 16:22:31;;;;;;;1.30;1.20;;;;;;;23.26;45.27;99272.77;221893;1268;25456;-72
2022/06/17 16:27:54;;;;;;;1.60;1.50;;;;;;;23.27;45.27;99271.71;221531;1270;24259;-72
2022/06/17 16:33:02;;;;;;;2.10;1.60;;;;;;;23.28;45.38;99273.13;221652;1270;23884;-71
2022/06/17 16:38:22;;;;;;;1.50;1.40;;;;;;;23.32;45.25;99280.71;221352;1270;23386;-71
2022/06/17 16:49:04;;;;;;;2.70;1.50;;;;;;;23.16;45.12;99287.58;221358;1270;22608;-71
2022/06/17 16:54:09;;;;;;;1.70;1.40;;;;;;;23.06;45.43;99286.20;221554;1268;25418;-71
2022/06/17 16:59:13;;;;;;;1.50;1.30;;;;;;;23.03;45.90;99284.34;221328;1270;23701;-71
2022/06/17 17:04:16;;;;;;;2.00;1.50;;;;;;;23.03;46.18;99285.12;221476;1270;22553;-71
2022/06/17 17:09:23;;;;;;;2.60;2.10;;;;;;;23.29;46.33;99281.02;221425;1270;22819;-72
2022/06/17 17:14:25;;;;;;;2.30;1.70;;;;;;;23.89;45.95;99277.66;221582;1269;22681;-71
2022/06/17 17:19:30;;;;;;;2.00;1.50;;;;;;;24.93;45.72;99280.89;221527;1270;22627;-71
2022/06/17 17:24:37;;;;;;;1.70;1.50;;;;;;;26.04;45.11;99285.55;221628;1268;24225;-72
2022/06/17 17:29:46;;;;;;;1.70;1.60;;;;;;;27.10;44.07;99289.95;221420;1268;22777;-71
2022/06/17 17:34:51;;;;;;;2.70;1.50;;;;;;;27.50;42.58;99295.90;221892;1271;23041;-72
2022/06/17 17:39:54;;;;;;;3.20;1.70;;;;;;;26.90;41.71;99295.13;221452;1271;23406;-71
2022/06/17 17:45:02;;;;;;;2.00;1.50;;;;;;;25.89;41.45;99295.69;221519;1268;23120;-70
2022/06/17 17:50:11;;;;;;;2.90;1.90;;;;;;;24.95;42.30;99293.27;221613;1271;25371;-71
2022/06/17 17:55:26;;;;;;;2.60;2.00;;;;;;;24.16;42.98;99291.52;221642;1270;22567;-71
2022/06/17 18:01:03;;;;;;;2.80;2.00;;;;;;;23.42;43.93;99288.47;221394;1268;22669;-72
2022/06/17 18:06:05;;;;;;;2.00;1.70;;;;;;;22.84;44.92;99294.63;221433;1270;22708;-71
2022/06/17 18:11:21;;;;;;;8.30;6.90;;;;;;;22.39;45.57;99294.35;221585;1268;24371;-71
2022/06/17 18:16:34;;;;;;;2.10;1.90;;;;;;;21.96;45.99;99291.85;221309;1269;25477;-70
2022/06/17 18:21:55;;;;;;;1.60;1.40;;;;;;;21.55;46.47;99292.84;221680;1268;22800;-71
2022/06/17 18:27:19;;;;;;;2.20;1.90;;;;;;;21.15;46.93;99288.71;221981;1268;25381;-70
2022/06/17 18:32:50;;;;;;;2.40;1.60;;;;;;;20.79;47.51;99289.61;221633;1268;22553;-72
2022/06/17 18:38:22;;;;;;;1.40;1.30;;;;;;;20.48;48.04;99286.43;221385;1270;22602;-69
2022/06/17 18:44:10;;;;;;;2.80;1.50;;;;;;;20.19;48.40;99290.13;221557;1269;22547;-71
2022/06/17 18:49:48;;;;;;;;;;;;;;;;;;;;;
2022/06/17 18:55:17;;;;;;;3.40;1.50;;;;;;;19.64;50.04;99296.42;221389;1272;22715;-70
2022/06/17 19:00:26;;;;;;;2.40;1.60;;;;;;;19.36;51.03;99299.36;221348;1268;23442;-71
2022/06/17 19:05:57;;;;;;;2.30;1.80;;;;;;;19.08;51.62;99301.34;221480;1268;25397;-70
2022/06/17 19:17:36;;;;;;;2.80;1.70;;;;;;;18.46;53.34;99312.39;221069;1271;24144;-71
2022/06/17 19:22:39;;;;;;;4.60;2.20;;;;;;;18.22;53.99;99318.04;221484;1268;25327;-72
2022/06/17 19:27:43;;;;;;;2.80;1.80;;;;;;;18.01;54.89;99323.70;221777;1268;25419;-71
2022/06/17 19:33:02;;;;;;;4.50;3.50;;;;;;;17.81;55.68;99328.52;221299;1268;22557;-70
2022/06/17 19:38:23;;;;;;;3.10;2.20;;;;;;;17.64;56.40;99330.40;221440;1268;26385;-71
2022/06/17 19:43:26;;;;;;;7.90;6.60;;;;;;;17.45;57.31;99335.23;221547;1268;22537;-72
2022/06/17 19:49:24;;;;;;;3.30;2.40;;;;;;;17.26;58.04;99332.27;221204;1271;22719;-70
2022/06/17 19:55:35;;;;;;;3.20;2.40;;;;;;;17.03;59.31;99340.52;221493;1268;25241;-71
2022/06/17 20:01:01;;;;;;;3.10;2.50;;;;;;;16.84;59.99;99335.17;221391;1268;25412;-71
2022/06/17 20:06:36;;;;;;;;;;;;;;;;;;;;;
2022/06/17 20:12:13;;;;;;;4.50;3.90;;;;;;;16.54;61.50;99339.41;221543;1268;25356;-71
2022/06/17 20:17:49;;;;;;;3.90;3.50;;;;;;;16.42;62.12;99342.00;221455;1268;24168;-72
2022/06/17 20:23:55;;;;;;;4.30;3.30;;;;;;;16.29;63.11;99345.17;221634;1268;22551;-72
2022/06/17 20:29:03;;;;;;;5.70;4.00;;;;;;;16.18;63.50;99341.56;221561;1268;22535;-71
2022/06/17 20:34:27;;;;;;;6.20;3.90;;;;;;;16.09;63.92;99341.81;221403;1270;25425;-70
2022/06/17 20:39:35;;;;;;;8.10;5.70;;;;;;;16.01;64.39;99337.10;221443;1268;25685;-72
2022/06/17 20:50:34;;;;;;;6.20;5.40;;;;;;;15.82;65.84;99332.91;221653;1268;24288;-70
2022/06/17 20:56:21;;;;;;;10.00;6.70;;;;;;;15.70;66.33;99334.02;221247;1270;22541;-70
2022/06/17 21:01:25;;;;;;;7.40;5.90;;;;;;;15.63;66.72;99342.48;220234;1268;25256;-71
2022/06/17 21:06:31;;;;;;;8.30;5.50;;;;;;;15.55;67.31;99337.48;221209;1270;22550;-71
2022/06/17 21:11:36;;;;;;;7.40;6.40;;;;;;;15.47;67.82;99337.83;221353;1269;23051;-71
2022/06/17 21:16:38;;;;;;;9.90;6.20;;;;;;;15.38;68.11;99344.63;221377;1270;24170;-71
2022/06/17 21:21:44;;;;;;;7.10;5.40;;;;;;;15.28;68.34;99340.70;221059;1271;22612;-71
2022/06/17 21:27:15;;;;;;;5.90;5.20;;;;;;;15.18;68.66;99343.09;221246;1268;22661;-71
2022/06/17 21:32:39;;;;;;;5.80;5.10;;;;;;;15.06;69.01;99346.05;221573;1268;24225;-70
2022/06/17 21:38:02;;;;;;;9.20;6.10;;;;;;;14.94;69.59;99349.17;221558;1268;24421;-71
2022/06/17 21:43:16;;;;;;;8.60;6.40;;;;;;;14.82;70.35;99351.27;221268;1268;26181;-71
2022/06/17 21:48:19;;;;;;;9.70;7.50;;;;;;;14.71;70.94;99347.27;221569;1268;25312;-72
2022/06/17 21:53:28;;;;;;;9.90;6.80;;;;;;;14.62;71.32;99339.00;221403;1268;25261;-71
2022/06/17 21:58:33;;;;;;;7.30;6.00;;;;;;;14.55;71.46;99341.53;221202;1268;25388;-70
2022/06/17 22:03:38;;;;;;;9.90;5.90;;;;;;;14.49;71.52;99339.02;221316;1269;25258;-70
2022/06/17 22:08:44;;;;;;;7.90;6.80;;;;;;;14.42;71.93;99340.24;221186;1270;25379;-71
2022/06/17 22:13:47;;;;;;;6.90;5.50;;;;;;;14.33;72.29;99340.08;221583;1270;25297;-72
2022/06/17 22:19:05;;;;;;;6.00;5.30;;;;;;;14.22;72.61;99342.87;221392;1268;22556;-71
2022/06/17 22:24:25;;;;;;;8.80;6.40;;;;;;;14.12;72.75;99336.43;221309;1267;23663;-71
2022/06/17 22:29:32;;;;;;;6.50;5.60;;;;;;;14.04;72.95;99335.45;221422;1268;23220;-71
2022/06/17 22:34:39;;;;;;;7.00;5.40;;;;;;;14.00;73.22;99333.81;221323;1268;25354;-71
2022/06/17 22:39:43;;;;;;;8.40;5.70;;;;;;;13.94;73.36;99337.19;221451;1268;24531;-71
2022/06/17 22:44:48;;;;;;;9.10;6.30;;;;;;;13.89;73.57;99339.50;221308;1270;24384;-71
2022/06/17 22:49:52;;;;;;;7.80;6.60;;;;;;;13.82;73.72;99343.80;221375;1270;25383;-70
2022/06/17 22:54:55;;;;;;;11.20;7.10;;;;;;;13.73;73.99;99347.19;221221;1268;23334;-71
2022/06/17 23:00:12;;;;;;;10.20;7.80;;;;;;;13.66;74.27;99344.95;221093;1268;22560;-71
2022/06/17 23:05:28;;;;;;;10.20;7.60;;;;;;;13.60;74.59;99348.75;221282;1268;25346;-72
2022/06/17 23:10:36;;;;;;;12.80;8.10;;;;;;;13.53;74.77;99344.81;221123;1268;22727;-71
2022/06/17 23:15:39;;;;;;;9.40;7.60;;;;;;;13.46;74.98;99346.55;221291;1268;24222;-71
2022/06/17 23:20:42;;;;;;;12.10;9.00;;;;;;;13.38;75.25;99344.45;221621;1268;25251;-71
2022/06/17 23:25:44;;;;;;;12.10;8.80;;;;;;;13.29;75.43;99349.98;221469;1270;25503;-71
2022/06/17 23:30:48;;;;;;;11.30;8.00;;;;;;;13.21;75.78;99344.27;221084;1268;24409;-72
2022/06/17 23:35:53;;;;;;;10.00;7.80;;;;;;;13.15;76.05;99340.20;221299;1268;23915;-72
2022/06/17 23:40:56;;;;;;;12.30;8.20;;;;;;;13.09;76.35;99338.83;221400;1269;22549;-71
2022/06/17 23:45:58;;;;;;;10.60;8.30;;;;;;;13.03;76.78;99337.84;221435;1270;25252;-70
2022/06/17 23:51:02;;;;;;;11.90;8.00;;;;;;;12.96;76.90;99337.45;221422;1268;25443;-71
2022/06/17 23:56:10;;;;;;;12.00;8.30;;;;;;;12.91;77.11;99337.58;221370;1268;22581;-70
